sensor_id;sensor_type;location;lat;lon;timestamp;P1;durP1;ratioP1;P2;durP2;ratioP2
86047;SDS011;76643;42.822;23.352;2024-03-02T00:00:50;60.60;;;25.45;;
86047;SDS011;76643;42.822;23.352;2024-03-02T00:03:17;64.05;;;25.30;;
86047;SDS011;76643;42.822;23.352;2024-03-02T00:05:43;65.53;;;27.60;;
86047;SDS011;76643;42.822;23.352;2024-03-02T00:08:11;58.95;;;22.08;;
86047;SDS011;76643;42.822;23.352;2024-03-02T00:10:41;48.00;;;21.38;;
86047;SDS011;76643;42.822;23.352;2024-03-02T00:13:07;64.40;;;23.83;;
86047;SDS011;76643;42.822;23.352;2024-03-02T00:18:14;60.75;;;22.90;;
86047;SDS011;76643;42.822;23.352;2024-03-02T00:20:41;51.83;;;21.45;;
86047;SDS011;76643;42.822;23.352;2024-03-02T00:23:08;51.75;;;25.45;;
86047;SDS011;76643;42.822;23.352;2024-03-02T00:28:00;57.92;;;24.33;;
86047;SDS011;76643;42.822;23.352;2024-03-02T00:33:07;61.67;;;24.77;;
86047;SDS011;76643;42.822;23.352;2024-03-02T00:35:33;56.03;;;21.30;;
86047;SDS011;76643;42.822;23.352;2024-03-02T00:38:03;58.28;;;23.58;;
86047;SDS011;76643;42.822;23.352;2024-03-02T00:40:31;57.42;;;23.08;;
86047;SDS011;76643;42.822;23.352;2024-03-02T00:42:57;55.58;;;23.48;;
86047;SDS011;76643;42.822;23.352;2024-03-02T00:45:24;52.58;;;22.48;;
86047;SDS011;76643;42.822;23.352;2024-03-02T00:47:50;56.45;;;22.52;;
86047;SDS011;76643;42.822;23.352;2024-03-02T00:50:16;50.80;;;20.90;;
86047;SDS011;76643;42.822;23.352;2024-03-02T00:52:42;55.53;;;20.23;;
86047;SDS011;76643;42.822;23.352;2024-03-02T00:55:08;52.50;;;22.10;;
86047;SDS011;76643;42.822;23.352;2024-03-02T00:57:34;53.00;;;20.77;;
86047;SDS011;76643;42.822;23.352;2024-03-02T01:00:00;53.25;;;21.95;;
86047;SDS011;76643;42.822;23.352;2024-03-02T01:02:25;57.75;;;21.63;;
86047;SDS011;76643;42.822;23.352;2024-03-02T01:04:51;56.97;;;22.58;;
86047;SDS011;76643;42.822;23.352;2024-03-02T01:07:17;52.38;;;21.80;;
86047;SDS011;76643;42.822;23.352;2024-03-02T01:09:42;57.58;;;21.42;;
86047;SDS011;76643;42.822;23.352;2024-03-02T01:12:08;55.38;;;22.13;;
86047;SDS011;76643;42.822;23.352;2024-03-02T01:14:34;60.33;;;22.67;;
86047;SDS011;76643;42.822;23.352;2024-03-02T01:17:00;56.05;;;22.63;;
86047;SDS011;76643;42.822;23.352;2024-03-02T01:19:28;57.58;;;21.15;;
86047;SDS011;76643;42.822;23.352;2024-03-02T01:21:54;60.45;;;26.30;;
86047;SDS011;76643;42.822;23.352;2024-03-02T01:24:19;55.22;;;23.08;;
86047;SDS011;76643;42.822;23.352;2024-03-02T01:26:44;52.67;;;20.92;;
86047;SDS011;76643;42.822;23.352;2024-03-02T01:29:10;54.30;;;22.10;;
86047;SDS011;76643;42.822;23.352;2024-03-02T01:31:35;53.05;;;20.67;;
86047;SDS011;76643;42.822;23.352;2024-03-02T01:34:01;56.38;;;23.15;;
86047;SDS011;76643;42.822;23.352;2024-03-02T01:36:26;63.25;;;25.15;;
86047;SDS011;76643;42.822;23.352;2024-03-02T01:38:52;56.60;;;23.88;;
86047;SDS011;76643;42.822;23.352;2024-03-02T01:41:17;57.60;;;22.65;;
86047;SDS011;76643;42.822;23.352;2024-03-02T01:43:43;52.22;;;21.65;;
86047;SDS011;76643;42.822;23.352;2024-03-02T01:46:08;55.47;;;21.92;;
86047;SDS011;76643;42.822;23.352;2024-03-02T01:48:34;55.70;;;22.52;;
86047;SDS011;76643;42.822;23.352;2024-03-02T01:51:00;50.80;;;21.80;;
86047;SDS011;76643;42.822;23.352;2024-03-02T01:53:26;58.63;;;23.42;;
86047;SDS011;76643;42.822;23.352;2024-03-02T01:55:51;45.78;;;20.85;;
86047;SDS011;76643;42.822;23.352;2024-03-02T01:58:17;55.28;;;24.27;;
86047;SDS011;76643;42.822;23.352;2024-03-02T02:00:43;55.50;;;23.65;;
86047;SDS011;76643;42.822;23.352;2024-03-02T02:03:08;53.78;;;21.73;;
86047;SDS011;76643;42.822;23.352;2024-03-02T02:05:34;56.55;;;23.13;;
86047;SDS011;76643;42.822;23.352;2024-03-02T02:08:00;51.83;;;22.60;;
86047;SDS011;76643;42.822;23.352;2024-03-02T02:10:26;53.58;;;21.27;;
86047;SDS011;76643;42.822;23.352;2024-03-02T02:12:51;53.70;;;22.75;;
86047;SDS011;76643;42.822;23.352;2024-03-02T02:15:27;47.83;;;20.98;;
86047;SDS011;76643;42.822;23.352;2024-03-02T02:17:54;57.65;;;22.95;;
86047;SDS011;76643;42.822;23.352;2024-03-02T02:20:20;53.35;;;21.83;;
86047;SDS011;76643;42.822;23.352;2024-03-02T02:23:19;51.30;;;23.02;;
86047;SDS011;76643;42.822;23.352;2024-03-02T02:25:38;50.28;;;21.05;;
86047;SDS011;76643;42.822;23.352;2024-03-02T02:28:04;56.13;;;21.48;;
86047;SDS011;76643;42.822;23.352;2024-03-02T02:30:30;51.55;;;22.38;;
86047;SDS011;76643;42.822;23.352;2024-03-02T02:32:56;50.95;;;23.60;;
86047;SDS011;76643;42.822;23.352;2024-03-02T02:35:23;53.70;;;21.60;;
86047;SDS011;76643;42.822;23.352;2024-03-02T02:37:52;51.28;;;21.42;;
86047;SDS011;76643;42.822;23.352;2024-03-02T02:40:19;49.53;;;21.02;;
86047;SDS011;76643;42.822;23.352;2024-03-02T02:42:44;54.83;;;21.42;;
86047;SDS011;76643;42.822;23.352;2024-03-02T02:45:10;45.42;;;22.75;;
86047;SDS011;76643;42.822;23.352;2024-03-02T02:47:38;46.53;;;20.67;;
86047;SDS011;76643;42.822;23.352;2024-03-02T02:50:03;49.13;;;20.40;;
86047;SDS011;76643;42.822;23.352;2024-03-02T02:52:33;55.30;;;22.15;;
86047;SDS011;76643;42.822;23.352;2024-03-02T02:55:02;51.72;;;22.42;;
86047;SDS011;76643;42.822;23.352;2024-03-02T02:57:28;52.70;;;22.73;;
86047;SDS011;76643;42.822;23.352;2024-03-02T02:59:56;47.67;;;19.58;;
86047;SDS011;76643;42.822;23.352;2024-03-02T03:02:22;57.03;;;22.75;;
86047;SDS011;76643;42.822;23.352;2024-03-02T03:04:47;52.72;;;21.67;;
86047;SDS011;76643;42.822;23.352;2024-03-02T03:07:13;53.45;;;24.00;;
86047;SDS011;76643;42.822;23.352;2024-03-02T03:09:38;51.67;;;21.45;;
86047;SDS011;76643;42.822;23.352;2024-03-02T03:12:04;53.10;;;22.73;;
86047;SDS011;76643;42.822;23.352;2024-03-02T03:14:29;53.83;;;21.38;;
86047;SDS011;76643;42.822;23.352;2024-03-02T03:16:55;53.47;;;21.35;;
86047;SDS011;76643;42.822;23.352;2024-03-02T03:19:20;54.25;;;21.88;;
86047;SDS011;76643;42.822;23.352;2024-03-02T03:21:46;45.10;;;20.73;;
86047;SDS011;76643;42.822;23.352;2024-03-02T03:24:11;55.65;;;22.95;;
86047;SDS011;76643;42.822;23.352;2024-03-02T03:26:37;50.38;;;21.77;;
86047;SDS011;76643;42.822;23.352;2024-03-02T03:29:02;52.65;;;20.52;;
86047;SDS011;76643;42.822;23.352;2024-03-02T03:31:28;51.13;;;22.50;;
86047;SDS011;76643;42.822;23.352;2024-03-02T03:33:54;63.03;;;21.52;;
86047;SDS011;76643;42.822;23.352;2024-03-02T03:36:20;54.60;;;22.08;;
86047;SDS011;76643;42.822;23.352;2024-03-02T03:38:45;57.58;;;21.38;;
86047;SDS011;76643;42.822;23.352;2024-03-02T03:41:11;54.60;;;23.63;;
86047;SDS011;76643;42.822;23.352;2024-03-02T03:43:36;50.88;;;20.48;;
86047;SDS011;76643;42.822;23.352;2024-03-02T03:46:02;47.53;;;19.75;;
86047;SDS011;76643;42.822;23.352;2024-03-02T03:48:28;50.08;;;20.52;;
86047;SDS011;76643;42.822;23.352;2024-03-02T03:50:56;54.15;;;22.25;;
86047;SDS011;76643;42.822;23.352;2024-03-02T03:53:22;53.13;;;25.00;;
86047;SDS011;76643;42.822;23.352;2024-03-02T03:55:47;51.70;;;22.90;;
86047;SDS011;76643;42.822;23.352;2024-03-02T03:58:14;53.03;;;23.42;;
86047;SDS011;76643;42.822;23.352;2024-03-02T04:00:41;47.70;;;21.65;;
86047;SDS011;76643;42.822;23.352;2024-03-02T04:03:07;51.67;;;21.77;;
86047;SDS011;76643;42.822;23.352;2024-03-02T04:05:33;51.35;;;24.15;;
86047;SDS011;76643;42.822;23.352;2024-03-02T04:07:58;57.42;;;23.15;;
86047;SDS011;76643;42.822;23.352;2024-03-02T04:10:25;59.65;;;23.25;;
86047;SDS011;76643;42.822;23.352;2024-03-02T04:12:50;54.25;;;22.85;;
86047;SDS011;76643;42.822;23.352;2024-03-02T04:15:15;54.80;;;23.98;;
86047;SDS011;76643;42.822;23.352;2024-03-02T04:17:43;60.72;;;24.05;;
86047;SDS011;76643;42.822;23.352;2024-03-02T04:20:09;54.83;;;21.75;;
86047;SDS011;76643;42.822;23.352;2024-03-02T04:22:35;61.35;;;23.33;;
86047;SDS011;76643;42.822;23.352;2024-03-02T04:25:01;77.18;;;28.23;;
86047;SDS011;76643;42.822;23.352;2024-03-02T04:27:27;79.93;;;28.13;;
86047;SDS011;76643;42.822;23.352;2024-03-02T04:29:52;73.82;;;27.15;;
86047;SDS011;76643;42.822;23.352;2024-03-02T04:32:17;61.38;;;24.58;;
86047;SDS011;76643;42.822;23.352;2024-03-02T04:34:44;88.75;;;37.20;;
86047;SDS011;76643;42.822;23.352;2024-03-02T04:37:10;77.78;;;31.75;;
86047;SDS011;76643;42.822;23.352;2024-03-02T04:39:37;63.10;;;26.83;;
86047;SDS011;76643;42.822;23.352;2024-03-02T04:42:03;61.20;;;24.88;;
86047;SDS011;76643;42.822;23.352;2024-03-02T04:44:28;54.30;;;21.80;;
86047;SDS011;76643;42.822;23.352;2024-03-02T04:46:54;53.40;;;22.48;;
86047;SDS011;76643;42.822;23.352;2024-03-02T04:49:19;51.78;;;21.48;;
86047;SDS011;76643;42.822;23.352;2024-03-02T04:51:45;44.72;;;20.23;;
86047;SDS011;76643;42.822;23.352;2024-03-02T04:54:10;55.05;;;22.45;;
86047;SDS011;76643;42.822;23.352;2024-03-02T04:56:35;58.88;;;23.85;;
86047;SDS011;76643;42.822;23.352;2024-03-02T04:59:14;51.17;;;22.25;;
86047;SDS011;76643;42.822;23.352;2024-03-02T05:01:39;56.78;;;24.10;;
86047;SDS011;76643;42.822;23.352;2024-03-02T05:04:05;59.58;;;25.90;;
86047;SDS011;76643;42.822;23.352;2024-03-02T05:06:30;52.85;;;25.58;;
86047;SDS011;76643;42.822;23.352;2024-03-02T05:08:56;65.22;;;27.05;;
86047;SDS011;76643;42.822;23.352;2024-03-02T05:11:21;60.63;;;24.10;;
86047;SDS011;76643;42.822;23.352;2024-03-02T05:14:02;56.58;;;23.42;;
86047;SDS011;76643;42.822;23.352;2024-03-02T05:16:34;54.63;;;22.55;;
86047;SDS011;76643;42.822;23.352;2024-03-02T05:19:00;64.68;;;24.63;;
86047;SDS011;76643;42.822;23.352;2024-03-02T05:21:25;57.05;;;23.38;;
86047;SDS011;76643;42.822;23.352;2024-03-02T05:23:51;57.35;;;24.10;;
86047;SDS011;76643;42.822;23.352;2024-03-02T05:26:16;54.78;;;22.27;;
86047;SDS011;76643;42.822;23.352;2024-03-02T05:28:42;53.63;;;25.27;;
86047;SDS011;76643;42.822;23.352;2024-03-02T05:31:11;59.67;;;26.08;;
86047;SDS011;76643;42.822;23.352;2024-03-02T05:33:40;62.40;;;25.25;;
86047;SDS011;76643;42.822;23.352;2024-03-02T05:36:05;73.15;;;26.27;;
86047;SDS011;76643;42.822;23.352;2024-03-02T05:38:31;58.92;;;22.60;;
86047;SDS011;76643;42.822;23.352;2024-03-02T05:40:57;65.57;;;26.63;;
86047;SDS011;76643;42.822;23.352;2024-03-02T05:43:23;67.07;;;25.77;;
86047;SDS011;76643;42.822;23.352;2024-03-02T05:45:48;63.88;;;24.83;;
86047;SDS011;76643;42.822;23.352;2024-03-02T05:48:14;63.50;;;23.40;;
86047;SDS011;76643;42.822;23.352;2024-03-02T05:50:40;56.35;;;22.17;;
86047;SDS011;76643;42.822;23.352;2024-03-02T05:53:05;62.65;;;24.88;;
86047;SDS011;76643;42.822;23.352;2024-03-02T05:55:30;57.20;;;22.58;;
86047;SDS011;76643;42.822;23.352;2024-03-02T05:57:56;63.00;;;23.75;;
86047;SDS011;76643;42.822;23.352;2024-03-02T06:00:22;58.35;;;24.23;;
86047;SDS011;76643;42.822;23.352;2024-03-02T06:02:47;58.47;;;23.45;;
86047;SDS011;76643;42.822;23.352;2024-03-02T06:05:13;62.13;;;23.55;;
86047;SDS011;76643;42.822;23.352;2024-03-02T06:07:40;60.80;;;24.88;;
86047;SDS011;76643;42.822;23.352;2024-03-02T06:10:05;66.35;;;24.17;;
86047;SDS011;76643;42.822;23.352;2024-03-02T06:12:32;69.03;;;28.38;;
86047;SDS011;76643;42.822;23.352;2024-03-02T06:14:58;69.03;;;28.65;;
86047;SDS011;76643;42.822;23.352;2024-03-02T06:17:23;72.07;;;28.23;;
86047;SDS011;76643;42.822;23.352;2024-03-02T06:19:49;69.38;;;28.00;;
86047;SDS011;76643;42.822;23.352;2024-03-02T06:22:14;61.70;;;26.05;;
86047;SDS011;76643;42.822;23.352;2024-03-02T06:24:40;73.82;;;29.52;;
86047;SDS011;76643;42.822;23.352;2024-03-02T06:27:05;64.53;;;24.88;;
86047;SDS011;76643;42.822;23.352;2024-03-02T06:29:34;62.45;;;27.52;;
86047;SDS011;76643;42.822;23.352;2024-03-02T06:31:59;78.93;;;31.45;;
86047;SDS011;76643;42.822;23.352;2024-03-02T06:34:25;84.15;;;34.67;;
86047;SDS011;76643;42.822;23.352;2024-03-02T06:36:50;80.57;;;32.65;;
86047;SDS011;76643;42.822;23.352;2024-03-02T06:39:16;73.90;;;32.25;;
86047;SDS011;76643;42.822;23.352;2024-03-02T06:41:41;90.97;;;34.35;;
86047;SDS011;76643;42.822;23.352;2024-03-02T06:44:12;81.28;;;33.47;;
86047;SDS011;76643;42.822;23.352;2024-03-02T06:46:37;71.03;;;32.00;;
86047;SDS011;76643;42.822;23.352;2024-03-02T06:49:03;74.32;;;30.38;;
86047;SDS011;76643;42.822;23.352;2024-03-02T06:51:29;74.82;;;29.45;;
86047;SDS011;76643;42.822;23.352;2024-03-02T06:53:54;72.47;;;31.23;;
86047;SDS011;76643;42.822;23.352;2024-03-02T06:56:20;77.50;;;30.67;;
86047;SDS011;76643;42.822;23.352;2024-03-02T06:58:46;86.28;;;31.30;;
86047;SDS011;76643;42.822;23.352;2024-03-02T07:01:12;65.55;;;29.63;;
86047;SDS011;76643;42.822;23.352;2024-03-02T07:03:37;69.45;;;28.00;;
86047;SDS011;76643;42.822;23.352;2024-03-02T07:06:04;64.50;;;24.55;;
86047;SDS011;76643;42.822;23.352;2024-03-02T07:08:30;62.88;;;24.40;;
86047;SDS011;76643;42.822;23.352;2024-03-02T07:10:56;80.38;;;31.77;;
86047;SDS011;76643;42.822;23.352;2024-03-02T07:13:22;62.47;;;29.05;;
86047;SDS011;76643;42.822;23.352;2024-03-02T07:15:48;67.43;;;26.98;;
86047;SDS011;76643;42.822;23.352;2024-03-02T07:18:29;61.60;;;25.08;;
86047;SDS011;76643;42.822;23.352;2024-03-02T07:21:05;65.15;;;24.60;;
86047;SDS011;76643;42.822;23.352;2024-03-02T07:23:32;66.82;;;27.95;;
86047;SDS011;76643;42.822;23.352;2024-03-02T07:25:57;58.65;;;24.73;;
86047;SDS011;76643;42.822;23.352;2024-03-02T07:28:25;62.22;;;23.02;;
86047;SDS011;76643;42.822;23.352;2024-03-02T07:31:00;57.97;;;23.85;;
86047;SDS011;76643;42.822;23.352;2024-03-02T07:33:26;58.97;;;24.10;;
86047;SDS011;76643;42.822;23.352;2024-03-02T07:35:52;68.25;;;24.98;;
86047;SDS011;76643;42.822;23.352;2024-03-02T07:38:19;67.95;;;26.98;;
86047;SDS011;76643;42.822;23.352;2024-03-02T07:40:45;75.10;;;31.38;;
86047;SDS011;76643;42.822;23.352;2024-03-02T07:43:10;71.22;;;28.33;;
86047;SDS011;76643;42.822;23.352;2024-03-02T07:45:36;72.28;;;28.80;;
86047;SDS011;76643;42.822;23.352;2024-03-02T07:48:02;79.45;;;28.70;;
86047;SDS011;76643;42.822;23.352;2024-03-02T07:50:29;73.18;;;28.55;;
86047;SDS011;76643;42.822;23.352;2024-03-02T07:52:55;64.05;;;27.27;;
86047;SDS011;76643;42.822;23.352;2024-03-02T07:55:21;65.55;;;27.52;;
86047;SDS011;76643;42.822;23.352;2024-03-02T07:57:46;59.38;;;25.90;;
86047;SDS011;76643;42.822;23.352;2024-03-02T08:00:12;57.55;;;22.45;;
86047;SDS011;76643;42.822;23.352;2024-03-02T08:02:37;49.28;;;21.67;;
86047;SDS011;76643;42.822;23.352;2024-03-02T08:05:03;61.33;;;24.77;;
86047;SDS011;76643;42.822;23.352;2024-03-02T08:07:29;50.13;;;21.63;;
86047;SDS011;76643;42.822;23.352;2024-03-02T08:09:54;55.30;;;23.80;;
86047;SDS011;76643;42.822;23.352;2024-03-02T08:12:20;60.17;;;26.70;;
86047;SDS011;76643;42.822;23.352;2024-03-02T08:14:48;65.20;;;26.77;;
86047;SDS011;76643;42.822;23.352;2024-03-02T08:17:14;57.28;;;28.50;;
86047;SDS011;76643;42.822;23.352;2024-03-02T08:19:39;51.25;;;24.25;;
86047;SDS011;76643;42.822;23.352;2024-03-02T08:22:05;48.05;;;19.55;;
86047;SDS011;76643;42.822;23.352;2024-03-02T08:24:30;50.28;;;20.65;;
86047;SDS011;76643;42.822;23.352;2024-03-02T08:26:56;45.85;;;19.83;;
86047;SDS011;76643;42.822;23.352;2024-03-02T08:29:23;49.50;;;19.67;;
86047;SDS011;76643;42.822;23.352;2024-03-02T08:31:48;51.42;;;23.10;;
86047;SDS011;76643;42.822;23.352;2024-03-02T08:34:14;55.00;;;24.40;;
86047;SDS011;76643;42.822;23.352;2024-03-02T08:36:39;43.97;;;18.77;;
86047;SDS011;76643;42.822;23.352;2024-03-02T08:39:05;49.55;;;21.05;;
86047;SDS011;76643;42.822;23.352;2024-03-02T08:41:32;50.35;;;21.05;;
86047;SDS011;76643;42.822;23.352;2024-03-02T08:43:58;53.83;;;23.67;;
86047;SDS011;76643;42.822;23.352;2024-03-02T08:46:23;51.42;;;21.70;;
86047;SDS011;76643;42.822;23.352;2024-03-02T08:48:49;58.58;;;23.83;;
86047;SDS011;76643;42.822;23.352;2024-03-02T08:51:14;48.40;;;20.92;;
86047;SDS011;76643;42.822;23.352;2024-03-02T08:53:40;40.70;;;18.98;;
86047;SDS011;76643;42.822;23.352;2024-03-02T08:56:05;47.45;;;19.55;;
86047;SDS011;76643;42.822;23.352;2024-03-02T08:58:31;42.53;;;17.33;;
86047;SDS011;76643;42.822;23.352;2024-03-02T09:00:57;45.83;;;19.10;;
86047;SDS011;76643;42.822;23.352;2024-03-02T09:03:22;56.95;;;21.85;;
86047;SDS011;76643;42.822;23.352;2024-03-02T09:05:48;45.75;;;18.45;;
86047;SDS011;76643;42.822;23.352;2024-03-02T09:08:13;44.05;;;18.95;;
86047;SDS011;76643;42.822;23.352;2024-03-02T09:10:39;48.13;;;20.98;;
86047;SDS011;76643;42.822;23.352;2024-03-02T09:13:05;51.22;;;20.40;;
86047;SDS011;76643;42.822;23.352;2024-03-02T09:15:30;47.75;;;23.27;;
86047;SDS011;76643;42.822;23.352;2024-03-02T09:17:56;49.65;;;20.73;;
86047;SDS011;76643;42.822;23.352;2024-03-02T09:20:21;52.22;;;21.70;;
86047;SDS011;76643;42.822;23.352;2024-03-02T09:22:47;54.17;;;24.48;;
86047;SDS011;76643;42.822;23.352;2024-03-02T09:25:13;61.67;;;26.73;;
86047;SDS011;76643;42.822;23.352;2024-03-02T09:27:39;52.20;;;22.48;;
86047;SDS011;76643;42.822;23.352;2024-03-02T09:30:07;51.08;;;21.23;;
86047;SDS011;76643;42.822;23.352;2024-03-02T09:32:33;52.38;;;22.35;;
86047;SDS011;76643;42.822;23.352;2024-03-02T09:34:58;56.03;;;24.42;;
86047;SDS011;76643;42.822;23.352;2024-03-02T09:37:24;43.35;;;21.15;;
86047;SDS011;76643;42.822;23.352;2024-03-02T09:39:49;323.13;;;194.43;;
86047;SDS011;76643;42.822;23.352;2024-03-02T09:42:15;659.55;;;304.80;;
86047;SDS011;76643;42.822;23.352;2024-03-02T09:44:40;285.17;;;118.30;;
86047;SDS011;76643;42.822;23.352;2024-03-02T09:47:07;92.68;;;38.50;;
86047;SDS011;76643;42.822;23.352;2024-03-02T09:49:33;1990.47;;;725.03;;
86047;SDS011;76643;42.822;23.352;2024-03-02T09:51:59;1842.95;;;610.38;;
86047;SDS011;76643;42.822;23.352;2024-03-02T09:54:26;1999.90;;;838.42;;
86047;SDS011;76643;42.822;23.352;2024-03-02T09:56:51;1073.38;;;407.45;;
86047;SDS011;76643;42.822;23.352;2024-03-02T09:59:17;1501.22;;;591.38;;
86047;SDS011;76643;42.822;23.352;2024-03-02T10:01:55;1975.57;;;744.83;;
86047;SDS011;76643;42.822;23.352;2024-03-02T10:04:25;1999.90;;;938.05;;
86047;SDS011;76643;42.822;23.352;2024-03-02T10:06:51;648.00;;;322.88;;
86047;SDS011;76643;42.822;23.352;2024-03-02T10:09:35;505.60;;;191.15;;
86047;SDS011;76643;42.822;23.352;2024-03-02T10:12:03;1099.82;;;506.67;;
86047;SDS011;76643;42.822;23.352;2024-03-02T10:14:30;1721.80;;;686.03;;
86047;SDS011;76643;42.822;23.352;2024-03-02T10:16:55;1999.90;;;940.92;;
86047;SDS011;76643;42.822;23.352;2024-03-02T10:19:27;63.92;;;31.95;;
86047;SDS011;76643;42.822;23.352;2024-03-02T10:21:57;40.13;;;18.52;;
86047;SDS011;76643;42.822;23.352;2024-03-02T10:24:23;31.15;;;14.35;;
86047;SDS011;76643;42.822;23.352;2024-03-02T10:26:50;35.83;;;16.95;;
86047;SDS011;76643;42.822;23.352;2024-03-02T10:29:16;37.72;;;14.50;;
86047;SDS011;76643;42.822;23.352;2024-03-02T10:31:42;34.47;;;15.77;;
86047;SDS011;76643;42.822;23.352;2024-03-02T10:34:09;33.95;;;17.58;;
86047;SDS011;76643;42.822;23.352;2024-03-02T10:36:36;34.88;;;14.77;;
86047;SDS011;76643;42.822;23.352;2024-03-02T10:39:05;31.95;;;14.52;;
86047;SDS011;76643;42.822;23.352;2024-03-02T10:41:35;38.63;;;18.98;;
86047;SDS011;76643;42.822;23.352;2024-03-02T10:44:06;34.03;;;15.02;;
86047;SDS011;76643;42.822;23.352;2024-03-02T10:46:33;36.22;;;14.82;;
86047;SDS011;76643;42.822;23.352;2024-03-02T10:49:03;41.50;;;18.65;;
86047;SDS011;76643;42.822;23.352;2024-03-02T10:51:31;39.95;;;20.20;;
86047;SDS011;76643;42.822;23.352;2024-03-02T10:54:00;38.35;;;16.67;;
86047;SDS011;76643;42.822;23.352;2024-03-02T10:56:29;41.47;;;16.73;;
86047;SDS011;76643;42.822;23.352;2024-03-02T10:58:55;289.80;;;160.40;;
86047;SDS011;76643;42.822;23.352;2024-03-02T11:01:29;359.75;;;191.20;;
86047;SDS011;76643;42.822;23.352;2024-03-02T11:03:56;410.25;;;223.82;;
86047;SDS011;76643;42.822;23.352;2024-03-02T11:06:23;693.55;;;393.08;;
86047;SDS011;76643;42.822;23.352;2024-03-02T11:08:53;970.13;;;550.50;;
86047;SDS011;76643;42.822;23.352;2024-03-02T11:11:27;1125.57;;;541.25;;
86047;SDS011;76643;42.822;23.352;2024-03-02T11:14:00;76.18;;;36.65;;
86047;SDS011;76643;42.822;23.352;2024-03-02T11:19:08;30.42;;;13.60;;
86047;SDS011;76643;42.822;23.352;2024-03-02T11:21:37;24.00;;;12.70;;
86047;SDS011;76643;42.822;23.352;2024-03-02T11:26:52;25.20;;;13.18;;
86047;SDS011;76643;42.822;23.352;2024-03-02T11:32:03;34.65;;;14.65;;
86047;SDS011;76643;42.822;23.352;2024-03-02T11:34:30;31.40;;;15.65;;
86047;SDS011;76643;42.822;23.352;2024-03-02T11:36:57;34.92;;;15.30;;
86047;SDS011;76643;42.822;23.352;2024-03-02T11:39:24;36.45;;;15.52;;
86047;SDS011;76643;42.822;23.352;2024-03-02T11:41:51;40.25;;;15.00;;
86047;SDS011;76643;42.822;23.352;2024-03-02T11:44:16;31.38;;;14.25;;
86047;SDS011;76643;42.822;23.352;2024-03-02T11:46:44;30.25;;;14.65;;
86047;SDS011;76643;42.822;23.352;2024-03-02T11:49:15;26.17;;;13.02;;
86047;SDS011;76643;42.822;23.352;2024-03-02T11:51:53;28.50;;;15.27;;
86047;SDS011;76643;42.822;23.352;2024-03-02T11:54:27;26.65;;;12.82;;
86047;SDS011;76643;42.822;23.352;2024-03-02T11:56:55;28.52;;;14.20;;
86047;SDS011;76643;42.822;23.352;2024-03-02T11:59:21;23.98;;;11.43;;
86047;SDS011;76643;42.822;23.352;2024-03-02T12:01:48;28.35;;;12.88;;
86047;SDS011;76643;42.822;23.352;2024-03-02T12:04:14;22.83;;;12.77;;
86047;SDS011;76643;42.822;23.352;2024-03-02T12:06:39;24.98;;;11.55;;
86047;SDS011;76643;42.822;23.352;2024-03-02T12:09:05;23.70;;;12.23;;
86047;SDS011;76643;42.822;23.352;2024-03-02T12:11:30;29.45;;;15.13;;
86047;SDS011;76643;42.822;23.352;2024-03-02T12:13:56;29.23;;;14.73;;
86047;SDS011;76643;42.822;23.352;2024-03-02T12:16:26;27.92;;;14.10;;
86047;SDS011;76643;42.822;23.352;2024-03-02T12:18:51;30.63;;;16.17;;
86047;SDS011;76643;42.822;23.352;2024-03-02T12:21:17;26.73;;;13.23;;
86047;SDS011;76643;42.822;23.352;2024-03-02T12:23:43;23.25;;;11.05;;
86047;SDS011;76643;42.822;23.352;2024-03-02T12:26:09;69.25;;;44.78;;
86047;SDS011;76643;42.822;23.352;2024-03-02T12:28:34;70.53;;;37.83;;
86047;SDS011;76643;42.822;23.352;2024-03-02T12:31:00;36.70;;;19.17;;
86047;SDS011;76643;42.822;23.352;2024-03-02T12:33:25;36.78;;;16.52;;
86047;SDS011;76643;42.822;23.352;2024-03-02T12:35:52;24.90;;;12.57;;
86047;SDS011;76643;42.822;23.352;2024-03-02T12:38:17;23.17;;;10.57;;
86047;SDS011;76643;42.822;23.352;2024-03-02T12:40:44;25.40;;;14.00;;
86047;SDS011;76643;42.822;23.352;2024-03-02T12:43:12;25.08;;;12.45;;
86047;SDS011;76643;42.822;23.352;2024-03-02T12:45:37;21.92;;;10.70;;
86047;SDS011;76643;42.822;23.352;2024-03-02T12:48:04;25.50;;;11.95;;
86047;SDS011;76643;42.822;23.352;2024-03-02T12:50:30;22.67;;;11.45;;
86047;SDS011;76643;42.822;23.352;2024-03-02T12:52:56;23.05;;;11.60;;
86047;SDS011;76643;42.822;23.352;2024-03-02T12:55:22;21.63;;;11.50;;
86047;SDS011;76643;42.822;23.352;2024-03-02T12:57:49;20.38;;;10.20;;
86047;SDS011;76643;42.822;23.352;2024-03-02T13:00:17;19.20;;;10.60;;
86047;SDS011;76643;42.822;23.352;2024-03-02T13:02:45;21.08;;;11.02;;
86047;SDS011;76643;42.822;23.352;2024-03-02T13:05:11;32.40;;;14.50;;
86047;SDS011;76643;42.822;23.352;2024-03-02T13:07:40;21.90;;;10.15;;
86047;SDS011;76643;42.822;23.352;2024-03-02T13:10:10;18.27;;;9.38;;
86047;SDS011;76643;42.822;23.352;2024-03-02T13:12:36;19.90;;;10.07;;
86047;SDS011;76643;42.822;23.352;2024-03-02T13:15:02;19.50;;;10.13;;
86047;SDS011;76643;42.822;23.352;2024-03-02T13:17:29;19.05;;;10.55;;
86047;SDS011;76643;42.822;23.352;2024-03-02T13:19:55;17.92;;;10.82;;
86047;SDS011;76643;42.822;23.352;2024-03-02T13:22:21;16.67;;;8.65;;
86047;SDS011;76643;42.822;23.352;2024-03-02T13:24:47;18.67;;;9.90;;
86047;SDS011;76643;42.822;23.352;2024-03-02T13:27:13;19.70;;;8.85;;
86047;SDS011;76643;42.822;23.352;2024-03-02T13:29:39;19.67;;;9.93;;
86047;SDS011;76643;42.822;23.352;2024-03-02T13:32:04;19.38;;;10.30;;
86047;SDS011;76643;42.822;23.352;2024-03-02T13:34:30;22.98;;;9.63;;
86047;SDS011;76643;42.822;23.352;2024-03-02T13:36:56;19.73;;;9.38;;
86047;SDS011;76643;42.822;23.352;2024-03-02T13:39:21;21.60;;;10.90;;
86047;SDS011;76643;42.822;23.352;2024-03-02T13:41:47;21.77;;;10.73;;
86047;SDS011;76643;42.822;23.352;2024-03-02T13:44:20;27.88;;;13.38;;
86047;SDS011;76643;42.822;23.352;2024-03-02T13:46:46;19.42;;;10.77;;
86047;SDS011;76643;42.822;23.352;2024-03-02T13:49:13;25.27;;;11.77;;
86047;SDS011;76643;42.822;23.352;2024-03-02T13:51:39;25.75;;;13.65;;
86047;SDS011;76643;42.822;23.352;2024-03-02T13:54:04;25.73;;;13.32;;
86047;SDS011;76643;42.822;23.352;2024-03-02T13:56:30;23.90;;;12.45;;
86047;SDS011;76643;42.822;23.352;2024-03-02T13:58:57;30.17;;;15.70;;
86047;SDS011;76643;42.822;23.352;2024-03-02T14:01:22;25.33;;;12.38;;
86047;SDS011;76643;42.822;23.352;2024-03-02T14:03:48;24.17;;;12.45;;
86047;SDS011;76643;42.822;23.352;2024-03-02T14:06:13;23.85;;;11.65;;
86047;SDS011;76643;42.822;23.352;2024-03-02T14:08:39;21.17;;;10.60;;
86047;SDS011;76643;42.822;23.352;2024-03-02T14:11:04;21.48;;;10.73;;
86047;SDS011;76643;42.822;23.352;2024-03-02T14:13:30;18.25;;;10.57;;
86047;SDS011;76643;42.822;23.352;2024-03-02T14:15:55;27.80;;;11.40;;
86047;SDS011;76643;42.822;23.352;2024-03-02T14:18:21;17.65;;;9.50;;